KMTV

Blue Ridge Airport

Martinsville, Virginia, USA
METAR KMTV 191037Z AUTO 00000KT 5SM BR CLR 14/14 A3001 RMK AO2
Observed Flight Rules
Sep-19 @ 10:37 UTC (27 minutes ago) Marginal Visual Flight Rules
Visibility Clouds Conditions
5 miles
  • Clear skies
  • Mist
Temperatures Readings
Current 14°C / 57°F
Dewpoint 14°C / 57°F
Humidity 100%
Altimeter 30.01" Hg
Pressure 1016 hPa
Elevation 287
METAR KMTV 191037Z AUTO 00000KT 5SM BR CLR 14/14 A3001 RMK AO2
Observed Flight Rules
Sep-19 @ 10:37 UTC
(27 minutes ago)
MVFR
Clouds
  • Clear skies
Conditions
  • Mist
Temperature Dewpoint
14°C / 57°F 14°C / 57°F
Humidity Altimeter Pressure
100% 30.01" Hg 1016 hPa